createdAt,value
2019-02-09T00:00:30.526Z,97793.30
2019-02-09T00:03:02.576Z,97791.89
2019-02-09T00:05:34.669Z,97792.59
2019-02-09T00:08:07.834Z,97783.27
2019-02-09T00:10:39.983Z,97782.57
2019-02-09T00:13:12.338Z,97788.95
2019-02-09T00:15:44.745Z,97782.80
2019-02-09T00:18:17.185Z,97791.52
2019-02-09T00:20:49.554Z,97781.81
2019-02-09T00:23:21.596Z,97776.80
2019-02-09T00:25:53.679Z,97773.34
2019-02-09T00:28:25.738Z,97769.28
2019-02-09T00:30:58.387Z,97765.80
2019-02-09T00:33:30.434Z,97765.11
2019-02-09T00:36:02.966Z,97760.43
2019-02-09T00:38:35.411Z,97763.59
2019-02-09T00:41:07.743Z,97768.28
2019-02-09T00:43:40.089Z,97761.61
2019-02-09T00:46:12.454Z,97763.40
2019-02-09T00:48:44.530Z,97757.52
2019-02-09T00:51:16.918Z,97743.92
2019-02-09T00:53:49.262Z,97736.45
2019-02-09T00:56:21.947Z,97736.08
2019-02-09T00:58:54.333Z,97733.79
2019-02-09T01:01:26.506Z,97739.64
2019-02-09T01:03:58.597Z,97740.24
2019-02-09T01:06:30.667Z,97732.62
2019-02-09T01:09:04.082Z,97730.95
2019-02-09T01:11:36.164Z,97727.73
2019-02-09T01:14:08.677Z,97727.52
2019-02-09T01:16:41.051Z,97717.23
2019-02-09T01:19:13.085Z,97727.03
2019-02-09T01:21:45.154Z,97727.52
2019-02-09T01:24:17.303Z,97718.23
2019-02-09T01:26:49.692Z,97731.97
2019-02-09T01:29:21.743Z,97732.72
2019-02-09T01:31:53.812Z,97724.28
2019-02-09T01:34:25.866Z,97728.39
2019-02-09T01:36:58.035Z,97725.29
2019-02-09T01:39:30.090Z,97729.63
2019-02-09T01:42:02.189Z,97725.03
2019-02-09T01:44:34.251Z,97723.02
2019-02-09T01:47:06.627Z,97724.84
2019-02-09T01:49:39.354Z,97725.63
2019-02-09T01:52:11.719Z,97720.98
2019-02-09T01:54:43.968Z,97711.67
2019-02-09T01:57:16.337Z,97714.87
2019-02-09T01:59:48.388Z,97712.17
2019-02-09T02:02:20.574Z,97696.77
2019-02-09T02:04:52.916Z,97685.88
2019-02-09T02:07:25.164Z,97672.91
2019-02-09T02:09:57.507Z,97654.91
2019-02-09T02:12:29.845Z,97643.58
2019-02-09T02:15:02.172Z,97636.24
2019-02-09T02:17:34.285Z,97632.62
2019-02-09T02:20:09.585Z,97623.74
2019-02-09T02:22:41.698Z,97612.77
2019-02-09T02:25:14.734Z,97611.96
2019-02-09T02:27:47.347Z,97624.70
2019-02-09T02:30:25.956Z,97624.01
2019-02-09T02:32:58.128Z,97613.41
2019-02-09T02:35:30.456Z,97609.59
2019-02-09T02:38:02.865Z,97610.90
2019-02-09T02:40:35.287Z,97610.31
2019-02-09T02:43:07.557Z,97612.81
2019-02-09T02:45:40.067Z,97602.09
2019-02-09T02:48:12.399Z,97588.28
2019-02-09T02:50:44.488Z,97574.83
2019-02-09T02:53:16.738Z,97568.64
2019-02-09T02:55:49.089Z,97554.59
2019-02-09T02:58:21.155Z,97543.38
2019-02-09T03:00:53.581Z,97533.14
2019-02-09T03:03:26.285Z,97538.64
2019-02-09T03:05:58.642Z,97550.86
2019-02-09T03:08:30.713Z,97555.88
2019-02-09T03:11:02.764Z,97576.84
2019-02-09T03:13:35.408Z,97567.79
2019-02-09T03:16:07.443Z,97563.84
2019-02-09T03:18:40.508Z,97571.84
2019-02-09T03:21:12.866Z,97577.07
2019-02-09T03:23:44.921Z,97583.03
2019-02-09T03:26:16.959Z,97567.91
2019-02-09T03:28:49.646Z,97580.28
2019-02-09T03:31:22.167Z,97584.07
2019-02-09T03:33:54.486Z,97575.70
2019-02-09T03:36:26.536Z,97580.57
2019-02-09T03:38:59.481Z,97584.03
2019-02-09T03:41:31.791Z,97580.96
2019-02-09T03:44:03.875Z,97583.09
2019-02-09T03:46:36.266Z,97579.65
2019-02-09T03:49:08.748Z,97580.96
2019-02-09T03:51:41.074Z,97590.86
2019-02-09T03:54:13.137Z,97591.81
2019-02-09T03:56:45.261Z,97601.83
2019-02-09T03:59:17.326Z,97605.42
2019-02-09T04:01:49.388Z,97611.73
2019-02-09T04:04:22.121Z,97604.70
2019-02-09T04:06:54.464Z,97603.04
2019-02-09T04:09:26.581Z,97608.63
2019-02-09T04:11:58.626Z,97594.67
2019-02-09T04:14:30.782Z,97596.58
2019-02-09T04:17:02.827Z,97599.21
2019-02-09T04:19:34.876Z,97608.41
2019-02-09T04:22:07.491Z,97607.45
2019-02-09T04:24:39.588Z,97611.86
2019-02-09T04:27:11.623Z,97614.38
2019-02-09T04:29:43.733Z,97615.55
2019-02-09T04:32:15.833Z,97619.14
2019-02-09T04:34:47.891Z,97611.62
2019-02-09T04:37:19.947Z,97615.91
2019-02-09T04:39:52.568Z,97609.48
2019-02-09T04:42:25.309Z,97619.02
2019-02-09T04:44:57.666Z,97618.91
2019-02-09T04:47:29.823Z,97620.32
2019-02-09T04:50:01.903Z,97633.08
2019-02-09T04:52:33.962Z,97629.84
2019-02-09T04:55:09.067Z,97647.72
2019-02-09T04:57:41.752Z,97650.69
2019-02-09T05:00:16.846Z,97655.08
2019-02-09T05:02:49.727Z,97664.02
2019-02-09T05:05:22.082Z,97674.38
2019-02-09T05:07:54.133Z,97664.38
2019-02-09T05:10:27.049Z,97665.68
2019-02-09T05:12:59.373Z,97634.74
2019-02-09T05:15:31.520Z,97611.98
2019-02-09T05:18:03.901Z,97623.90
2019-02-09T05:20:36.244Z,97623.89
2019-02-09T05:23:08.293Z,97618.52
2019-02-09T05:25:40.581Z,97644.39
2019-02-09T05:28:12.891Z,97646.78
2019-02-09T05:30:45.899Z,97638.30
2019-02-09T05:33:18.321Z,97629.49
2019-02-09T05:35:50.454Z,97622.92
2019-02-09T05:38:22.512Z,97638.30
2019-02-09T05:40:55.151Z,97628.80
2019-02-09T05:43:27.203Z,97640.47
2019-02-09T05:45:59.844Z,97624.51
2019-02-09T05:48:31.886Z,97627.58
2019-02-09T05:51:05.034Z,97628.67
2019-02-09T05:53:37.366Z,97622.36
2019-02-09T05:56:09.443Z,97630.10
2019-02-09T05:58:41.562Z,97626.98
2019-02-09T06:01:13.676Z,97629.38
2019-02-09T06:03:45.680Z,97643.78
2019-02-09T06:06:17.746Z,97653.06
2019-02-09T06:08:49.794Z,97651.04
2019-02-09T06:11:21.861Z,97661.41
2019-02-09T06:13:54.306Z,97658.66
2019-02-09T06:16:26.692Z,97657.84
2019-02-09T06:18:58.741Z,97653.27
2019-02-09T06:21:30.856Z,97650.97
2019-02-09T06:24:03.005Z,97650.35
2019-02-09T06:26:35.232Z,97647.68
2019-02-09T06:29:07.541Z,97638.34
2019-02-09T06:31:41.218Z,97637.91
2019-02-09T06:34:14.040Z,97645.06
2019-02-09T06:36:46.421Z,97653.41
2019-02-09T06:39:19.200Z,97659.06
2019-02-09T06:41:51.675Z,97667.85
2019-02-09T06:44:24.444Z,97673.38
2019-02-09T06:46:56.791Z,97671.47
2019-02-09T06:49:28.847Z,97666.19
2019-02-09T06:52:01.479Z,97665.66
2019-02-09T06:54:33.617Z,97666.06
2019-02-09T06:57:06.163Z,97665.88
2019-02-09T06:59:38.495Z,97669.54
2019-02-09T07:02:11.196Z,97674.28
2019-02-09T07:04:43.695Z,97677.28
2019-02-09T07:07:16.481Z,97684.70
2019-02-09T07:09:49.071Z,97693.86
2019-02-09T07:12:21.558Z,97699.91
2019-02-09T07:14:53.912Z,97706.91
2019-02-09T07:17:25.976Z,97709.63
2019-02-09T07:19:58.079Z,97715.05
2019-02-09T07:22:30.245Z,97716.28
2019-02-09T07:25:02.635Z,97716.57
2019-02-09T07:27:35.489Z,97718.77
2019-02-09T07:30:11.889Z,97715.05
2019-02-09T07:32:44.609Z,97726.08
2019-02-09T07:35:16.765Z,97723.33
2019-02-09T07:37:49.413Z,97724.25
2019-02-09T07:40:23.173Z,97735.66
2019-02-09T07:42:56.685Z,97750.08
2019-02-09T07:45:27.934Z,97739.65
2019-02-09T07:47:59.990Z,97730.02
2019-02-09T07:50:32.192Z,97741.03
2019-02-09T07:53:04.261Z,97740.34
2019-02-09T07:55:36.985Z,97743.23
2019-02-09T07:58:09.408Z,97745.78
2019-02-09T08:00:41.469Z,97745.41
2019-02-09T08:03:14.311Z,97742.53
2019-02-09T08:05:46.987Z,97738.92
2019-02-09T08:08:19.968Z,97741.04
2019-02-09T08:10:52.302Z,97748.42
2019-02-09T08:13:24.398Z,97753.33
2019-02-09T08:15:56.474Z,97741.94
2019-02-09T08:18:28.561Z,97744.02
2019-02-09T08:21:00.599Z,97739.44
2019-02-09T08:23:33.280Z,97739.79
2019-02-09T08:26:06.807Z,97746.38
2019-02-09T08:28:39.834Z,97761.09
2019-02-09T08:31:12.210Z,97754.16
2019-02-09T08:33:44.916Z,97752.50
2019-02-09T08:36:17.390Z,97755.55
2019-02-09T08:38:49.451Z,97756.67
2019-02-09T08:41:21.524Z,97759.87
2019-02-09T08:43:53.583Z,97772.56
2019-02-09T08:46:26.286Z,97777.02
2019-02-09T08:48:58.654Z,97777.14
2019-02-09T08:51:30.678Z,97776.16
2019-02-09T08:54:02.809Z,97782.34
2019-02-09T08:56:35.023Z,97780.06
2019-02-09T08:59:07.448Z,97781.50
2019-02-09T09:01:40.076Z,97778.09
2019-02-09T09:04:12.429Z,97793.70
2019-02-09T09:06:44.473Z,97782.70
2019-02-09T09:09:16.903Z,97793.73
2019-02-09T09:11:49.940Z,97802.56
2019-02-09T09:14:22.421Z,97804.17
2019-02-09T09:16:55.574Z,97800.11
2019-02-09T09:19:28.248Z,97800.77
2019-02-09T09:22:01.142Z,97804.94
2019-02-09T09:24:33.507Z,97810.95
2019-02-09T09:27:07.390Z,97812.33
2019-02-09T09:29:41.206Z,97810.71
2019-02-09T09:32:13.801Z,97817.80
2019-02-09T09:34:46.196Z,97822.28
2019-02-09T09:37:18.741Z,97816.89
2019-02-09T09:39:51.063Z,97816.48
2019-02-09T09:42:23.499Z,97822.10
2019-02-09T09:44:56.030Z,97836.27
2019-02-09T09:47:28.437Z,97833.30
2019-02-09T09:50:00.978Z,97829.59
2019-02-09T09:52:33.372Z,97829.92
2019-02-09T09:55:06.662Z,97832.12
2019-02-09T09:57:38.024Z,97833.73
2019-02-09T10:00:12.559Z,97834.73
2019-02-09T10:02:45.398Z,97838.13
2019-02-09T10:05:18.436Z,97838.27
2019-02-09T10:07:50.848Z,97832.31
2019-02-09T10:10:23.836Z,97838.88
2019-02-09T10:12:56.220Z,97825.77
2019-02-09T10:15:28.830Z,97838.91
2019-02-09T10:18:01.569Z,97841.16
2019-02-09T10:20:33.930Z,97842.11
2019-02-09T10:23:06.770Z,97845.34
2019-02-09T10:25:39.038Z,97844.09
2019-02-09T10:28:11.825Z,97844.88
2019-02-09T10:30:44.329Z,97838.96
2019-02-09T10:33:17.050Z,97847.66
2019-02-09T10:35:49.911Z,97851.70
2019-02-09T10:38:22.280Z,97856.61
2019-02-09T10:40:54.749Z,97855.30
2019-02-09T10:43:27.488Z,97861.63
2019-02-09T10:46:00.108Z,97855.66
2019-02-09T10:48:32.437Z,97841.55
2019-02-09T10:51:04.738Z,97857.84
2019-02-09T10:53:37.066Z,97858.45
2019-02-09T10:56:09.118Z,97853.64
2019-02-09T10:58:41.353Z,97861.92
2019-02-09T11:01:18.284Z,97860.16
2019-02-09T11:03:51.010Z,97854.92
2019-02-09T11:06:23.468Z,97848.77
2019-02-09T11:08:55.954Z,97854.25
2019-02-09T11:11:28.422Z,97859.56
2019-02-09T11:14:00.768Z,97856.94
2019-02-09T11:16:32.873Z,97857.58
2019-02-09T11:19:05.062Z,97868.53
2019-02-09T11:21:37.470Z,97851.27
2019-02-09T11:24:09.821Z,97842.63
2019-02-09T11:26:42.270Z,97846.94
2019-02-09T11:29:14.957Z,97840.64
2019-02-09T11:31:47.417Z,97846.64
2019-02-09T11:34:20.118Z,97841.13
2019-02-09T11:36:52.777Z,97859.59
2019-02-09T11:39:25.189Z,97857.08
2019-02-09T11:41:57.553Z,97868.50
2019-02-09T11:44:30.314Z,97863.22
2019-02-09T11:47:03.121Z,97859.73
2019-02-09T11:49:36.110Z,97853.94
2019-02-09T11:52:08.363Z,97849.95
2019-02-09T11:54:40.696Z,97853.42
2019-02-09T11:57:13.047Z,97856.41
2019-02-09T11:59:45.598Z,97868.66
2019-02-09T12:02:17.939Z,97876.47
2019-02-09T12:04:50.032Z,97866.95
2019-02-09T12:07:23.893Z,97875.76
2019-02-09T12:09:56.411Z,97865.05
2019-02-09T12:12:28.953Z,97860.21
2019-02-09T12:15:01.298Z,97862.89
2019-02-09T12:17:33.644Z,97854.41
2019-02-09T12:20:08.838Z,97853.91
2019-02-09T12:22:41.518Z,97851.08
2019-02-09T12:25:18.525Z,97852.41
2019-02-09T12:27:51.159Z,97862.19
2019-02-09T12:30:26.492Z,97850.70
2019-02-09T12:32:59.469Z,97862.39
2019-02-09T12:35:31.973Z,97856.47
2019-02-09T12:38:05.242Z,97854.50
2019-02-09T12:40:38.589Z,97852.18
2019-02-09T12:43:11.071Z,97853.16
2019-02-09T12:45:43.443Z,97852.39
2019-02-09T12:48:15.887Z,97856.47
2019-02-09T12:50:48.581Z,97843.94
2019-02-09T12:53:20.927Z,97861.11
2019-02-09T12:56:08.436Z,97850.69
2019-02-09T12:58:41.225Z,97854.36
2019-02-09T13:01:13.665Z,97857.28
2019-02-09T13:03:46.075Z,97862.10
2019-02-09T13:06:18.459Z,97854.84
2019-02-09T13:08:51.121Z,97854.19
2019-02-09T13:11:23.506Z,97851.23
2019-02-09T13:13:55.870Z,97860.22
2019-02-09T13:16:28.565Z,97859.51
2019-02-09T13:19:00.948Z,97851.26
2019-02-09T13:21:33.270Z,97852.91
2019-02-09T13:24:06.072Z,97837.96
2019-02-09T13:26:38.467Z,97850.52
2019-02-09T13:29:11.371Z,97849.24
2019-02-09T13:31:43.689Z,97853.06
2019-02-09T13:34:16.072Z,97850.42
2019-02-09T13:36:48.744Z,97846.91
2019-02-09T13:39:21.130Z,97852.81
2019-02-09T13:41:53.480Z,97851.02
2019-02-09T13:44:26.343Z,97853.80
2019-02-09T13:46:58.673Z,97851.55
2019-02-09T13:49:30.751Z,97836.11
2019-02-09T13:52:02.803Z,97834.73
2019-02-09T13:54:35.152Z,97840.45
2019-02-09T13:57:07.752Z,97841.92
2019-02-09T13:59:40.103Z,97831.48
2019-02-09T14:02:12.472Z,97836.63
2019-02-09T14:04:44.866Z,97833.80
2019-02-09T14:07:17.187Z,97835.82
2019-02-09T14:09:49.267Z,97834.95
2019-02-09T14:12:21.341Z,97834.77
2019-02-09T14:14:53.684Z,97830.00
2019-02-09T14:17:26.042Z,97821.48
2019-02-09T14:19:58.416Z,97830.16
2019-02-09T14:22:31.018Z,97832.14
2019-02-09T14:25:03.384Z,97829.30
2019-02-09T14:27:35.771Z,97830.52
2019-02-09T14:30:14.080Z,97817.88
2019-02-09T14:32:47.062Z,97839.81
2019-02-09T14:35:19.437Z,97852.61
2019-02-09T14:37:52.487Z,97833.00
2019-02-09T14:40:30.730Z,97836.98
2019-02-09T14:43:04.060Z,97837.34
2019-02-09T14:45:39.503Z,97826.69
2019-02-09T14:48:12.174Z,97844.77
2019-02-09T14:50:44.876Z,97843.61
2019-02-09T14:53:18.817Z,97842.63
2019-02-09T14:55:51.594Z,97848.72
2019-02-09T14:58:24.133Z,97852.52
2019-02-09T15:00:57.401Z,97861.12
2019-02-09T15:03:30.816Z,97860.80
2019-02-09T15:06:03.863Z,97857.95
2019-02-09T15:08:37.393Z,97871.05
2019-02-09T15:11:10.479Z,97859.38
2019-02-09T15:13:43.098Z,97858.52
2019-02-09T15:16:43.734Z,97868.14
2019-02-09T15:19:17.363Z,97867.13
2019-02-09T15:21:50.356Z,97867.48
2019-02-09T15:24:25.329Z,97872.74
2019-02-09T15:26:57.982Z,97875.17
2019-02-09T15:29:30.328Z,97872.20
2019-02-09T15:32:02.684Z,97867.57
2019-02-09T15:34:35.007Z,97878.75
2019-02-09T15:37:07.866Z,97878.67
2019-02-09T15:39:40.190Z,97879.66
2019-02-09T15:42:12.301Z,97885.98
2019-02-09T15:44:44.718Z,97886.28
2019-02-09T15:47:18.373Z,97883.65
2019-02-09T15:49:51.383Z,97891.52
2019-02-09T15:52:23.885Z,97886.81
2019-02-09T15:54:56.211Z,97896.76
2019-02-09T15:57:28.660Z,97892.07
2019-02-09T16:00:01.081Z,97898.98
2019-02-09T16:02:33.430Z,97895.97
2019-02-09T16:05:06.355Z,97891.80
2019-02-09T16:07:38.742Z,97894.37
2019-02-09T16:10:11.816Z,97895.54
2019-02-09T16:12:42.894Z,97897.04
2019-02-09T16:15:18.661Z,97904.35
2019-02-09T16:17:51.646Z,97898.16
2019-02-09T16:20:25.345Z,97898.37
2019-02-09T16:22:58.352Z,97901.45
2019-02-09T16:25:30.995Z,97892.25
2019-02-09T16:28:03.797Z,97890.68
2019-02-09T16:30:36.183Z,97898.50
2019-02-09T16:33:08.588Z,97896.09
2019-02-09T16:35:40.933Z,97906.88
2019-02-09T16:38:13.067Z,97913.86
2019-02-09T16:40:45.458Z,97920.55
2019-02-09T16:43:18.271Z,97917.42
2019-02-09T16:45:50.795Z,97925.29
2019-02-09T16:48:23.594Z,97932.78
2019-02-09T16:50:55.919Z,97929.77
2019-02-09T16:53:27.991Z,97931.80
2019-02-09T16:56:00.048Z,97926.36
2019-02-09T16:58:32.476Z,97924.62
2019-02-09T17:01:05.391Z,97938.45
2019-02-09T17:03:38.060Z,97940.03
2019-02-09T17:06:25.300Z,97945.20
2019-02-09T17:08:58.885Z,97942.15
2019-02-09T17:11:31.317Z,97932.33
2019-02-09T17:14:03.824Z,97938.26
2019-02-09T17:16:36.211Z,97949.19
2019-02-09T17:19:08.581Z,97964.67
2019-02-09T17:21:41.204Z,97966.19
2019-02-09T17:24:13.571Z,97976.91
2019-02-09T17:26:45.629Z,98003.03
2019-02-09T17:29:17.694Z,98008.06
2019-02-09T17:31:49.786Z,98019.67
2019-02-09T17:34:21.842Z,98021.15
2019-02-09T17:36:54.740Z,98016.90
2019-02-09T17:39:27.054Z,98002.31
2019-02-09T17:41:59.209Z,98011.19
2019-02-09T17:44:31.537Z,98004.63
2019-02-09T17:47:03.643Z,98010.55
2019-02-09T17:49:35.687Z,98012.92
2019-02-09T17:52:08.487Z,98018.69
2019-02-09T17:54:40.848Z,98024.67
2019-02-09T17:57:13.913Z,98028.00
2019-02-09T17:59:46.209Z,98034.23
2019-02-09T18:02:18.268Z,98034.74
2019-02-09T18:04:50.440Z,98037.97
2019-02-09T18:07:23.186Z,98041.16
2019-02-09T18:09:55.510Z,98036.95
2019-02-09T18:12:27.591Z,98032.86
2019-02-09T18:14:59.766Z,98037.83
2019-02-09T18:17:31.865Z,98041.83
2019-02-09T18:20:05.139Z,98036.92
2019-02-09T18:22:37.779Z,98042.09
2019-02-09T18:25:11.886Z,98040.16
2019-02-09T18:27:48.165Z,98044.41
2019-02-09T18:30:23.041Z,98047.41
2019-02-09T18:32:55.766Z,98045.84
2019-02-09T18:35:28.485Z,98056.71
2019-02-09T18:38:00.823Z,98056.45
2019-02-09T18:40:32.971Z,98052.72
2019-02-09T18:43:05.214Z,98052.30
2019-02-09T18:45:37.578Z,98050.78
2019-02-09T18:48:09.770Z,98042.60
2019-02-09T18:50:43.124Z,98037.98
2019-02-09T18:53:14.421Z,98041.04
2019-02-09T18:55:46.438Z,98043.42
2019-02-09T18:58:19.805Z,98044.99
2019-02-09T19:00:52.496Z,98044.31
2019-02-09T19:03:24.832Z,98039.92
2019-02-09T19:05:57.143Z,98045.11
2019-02-09T19:08:29.202Z,98037.38
2019-02-09T19:11:02.293Z,98044.34
2019-02-09T19:13:35.389Z,98031.44
2019-02-09T19:16:08.758Z,98033.00
2019-02-09T19:18:41.557Z,98031.12
2019-02-09T19:21:17.146Z,98030.09
2019-02-09T19:23:50.099Z,98028.66
2019-02-09T19:26:22.444Z,98032.00
2019-02-09T19:28:54.847Z,98025.86
2019-02-09T19:31:27.165Z,98024.20
2019-02-09T19:33:59.567Z,98022.88
2019-02-09T19:36:31.886Z,98024.83
2019-02-09T19:39:08.026Z,98026.27
2019-02-09T19:41:40.660Z,98022.13
2019-02-09T19:44:12.807Z,98020.05
2019-02-09T19:46:45.258Z,98018.64
2019-02-09T19:49:17.598Z,98023.41
2019-02-09T19:51:49.644Z,98015.38
2019-02-09T19:54:22.274Z,98026.95
2019-02-09T19:56:54.438Z,98024.42
2019-02-09T19:59:27.117Z,98026.75
2019-02-09T20:01:59.514Z,98027.67
2019-02-09T20:04:31.611Z,98021.02
2019-02-09T20:07:04.402Z,98030.89
2019-02-09T20:09:36.939Z,98037.61
2019-02-09T20:12:09.665Z,98032.71
2019-02-09T20:14:42.011Z,98041.23
2019-02-09T20:17:14.111Z,98039.38
2019-02-09T20:19:46.583Z,98047.34
2019-02-09T20:22:18.904Z,98049.85
2019-02-09T20:24:51.081Z,98057.98
2019-02-09T20:27:23.244Z,98054.64
2019-02-09T20:29:56.736Z,98052.98
2019-02-09T20:32:29.335Z,98052.53
2019-02-09T20:35:01.454Z,98054.69
2019-02-09T20:37:33.622Z,98046.18
2019-02-09T20:40:07.700Z,98048.67
2019-02-09T20:42:40.903Z,98050.84
2019-02-09T20:45:14.390Z,98054.25
2019-02-09T20:47:49.765Z,98052.16
2019-02-09T20:50:21.823Z,98053.12
2019-02-09T20:52:54.482Z,98054.58
2019-02-09T20:55:26.967Z,98044.63
2019-02-09T20:57:59.406Z,98036.05
2019-02-09T21:00:32.132Z,98035.70
2019-02-09T21:03:05.397Z,98032.34
2019-02-09T21:05:37.072Z,98028.17
2019-02-09T21:08:11.315Z,98020.77
2019-02-09T21:10:44.422Z,98025.19
2019-02-09T21:13:17.124Z,98026.31
2019-02-09T21:15:50.020Z,98026.50
2019-02-09T21:18:22.569Z,98035.37
2019-02-09T21:20:54.908Z,98041.08
2019-02-09T21:23:27.005Z,98040.34
2019-02-09T21:25:59.402Z,98030.31
2019-02-09T21:28:31.762Z,98044.29
2019-02-09T21:31:04.175Z,98045.23
2019-02-09T21:33:36.827Z,98045.31
2019-02-09T21:36:09.456Z,98047.20
2019-02-09T21:38:42.185Z,98043.19
2019-02-09T21:41:14.888Z,98042.48
2019-02-09T21:43:47.215Z,98037.02
2019-02-09T21:46:20.360Z,98050.77
2019-02-09T21:48:53.428Z,98043.61
2019-02-09T21:51:25.833Z,98048.61
2019-02-09T21:53:58.200Z,98042.39
2019-02-09T21:56:30.367Z,98042.52
2019-02-09T21:59:02.817Z,98040.13
2019-02-09T22:01:35.314Z,98041.44
2019-02-09T22:04:07.752Z,98046.08
2019-02-09T22:06:40.487Z,98044.53
2019-02-09T22:09:12.941Z,98040.70
2019-02-09T22:11:45.314Z,98045.44
2019-02-09T22:14:17.822Z,98030.84
2019-02-09T22:16:50.641Z,98039.55
2019-02-09T22:19:23.350Z,98044.76
2019-02-09T22:21:56.087Z,98032.95
2019-02-09T22:24:28.518Z,98037.09
2019-02-09T22:27:00.618Z,98031.38
2019-02-09T22:29:33.326Z,98034.29
2019-02-09T22:32:05.924Z,98028.25
2019-02-09T22:34:38.277Z,98028.66
2019-02-09T22:37:10.414Z,98030.33
2019-02-09T22:39:42.553Z,98028.89
2019-02-09T22:42:15.088Z,98027.59
2019-02-09T22:44:47.760Z,98022.49
2019-02-09T22:47:20.880Z,98027.87
2019-02-09T22:49:53.725Z,98023.70
2019-02-09T22:52:26.100Z,98022.97
2019-02-09T22:54:58.569Z,98024.63
2019-02-09T22:57:30.913Z,98016.05
2019-02-09T23:00:03.264Z,98021.25
2019-02-09T23:02:35.601Z,98035.45
2019-02-09T23:05:54.635Z,98032.09
2019-02-09T23:08:31.019Z,98032.46
2019-02-09T23:11:03.779Z,98028.12
2019-02-09T23:13:36.455Z,98016.52
2019-02-09T23:16:09.254Z,98017.19
2019-02-09T23:18:41.602Z,98016.23
2019-02-09T23:21:13.780Z,98020.50
2019-02-09T23:23:46.271Z,98026.08
2019-02-09T23:26:18.638Z,98022.48
2019-02-09T23:28:50.701Z,98019.28
2019-02-09T23:31:22.771Z,98020.23
2019-02-09T23:33:55.301Z,98020.27
2019-02-09T23:36:27.626Z,98014.19
2019-02-09T23:38:59.868Z,98013.94
2019-02-09T23:41:32.335Z,98015.25
2019-02-09T23:44:04.870Z,98009.21
2019-02-09T23:46:38.009Z,98002.97
2019-02-09T23:49:10.182Z,98002.37
2019-02-09T23:51:42.362Z,97993.49
2019-02-09T23:54:14.415Z,97990.55
2019-02-09T23:56:46.531Z,97991.86
2019-02-09T23:59:18.592Z,97983.19
